createdAt,value
2022-09-17T00:00:24.219Z,35.53
2022-09-17T00:02:55.724Z,54.20
2022-09-17T00:05:23.669Z,45.73
2022-09-17T00:07:51.174Z,34.90
2022-09-17T00:10:18.885Z,50.10
2022-09-17T00:12:45.440Z,26.97
2022-09-17T00:15:12.165Z,46.77
2022-09-17T00:17:38.818Z,36.20
2022-09-17T00:20:07.630Z,28.97
2022-09-17T00:22:33.998Z,33.90
2022-09-17T00:25:00.357Z,37.33
2022-09-17T00:27:26.704Z,26.60
2022-09-17T00:29:53.077Z,48.40
2022-09-17T00:32:19.423Z,33.73
2022-09-17T00:34:46.688Z,32.27
2022-09-17T00:37:13.015Z,37.93
2022-09-17T00:39:39.550Z,30.93
2022-09-17T00:42:10.665Z,38.17
2022-09-17T00:44:42.072Z,47.83
2022-09-17T00:47:12.527Z,42.03
2022-09-17T00:49:38.906Z,42.00
2022-09-17T00:52:08.192Z,40.07
2022-09-17T00:54:35.471Z,34.87
2022-09-17T00:57:02.430Z,37.63
2022-09-17T00:59:28.846Z,41.00
2022-09-17T01:01:55.274Z,42.53
2022-09-17T01:04:23.278Z,30.50
2022-09-17T01:06:55.642Z,38.27
2022-09-17T01:09:38.557Z,40.93
2022-09-17T01:12:04.928Z,41.00
2022-09-17T01:14:37.298Z,42.57
2022-09-17T01:17:22.240Z,51.60
2022-09-17T01:20:07.162Z,31.67
2022-09-17T01:22:40.235Z,34.90
2022-09-17T01:25:25.572Z,54.63
2022-09-17T01:27:55.145Z,34.43
2022-09-17T01:30:33.403Z,37.20
2022-09-17T01:33:10.998Z,39.50
2022-09-17T01:35:53.108Z,31.13
2022-09-17T01:38:25.675Z,30.37
2022-09-17T01:41:07.968Z,29.83
2022-09-17T01:43:34.387Z,40.70
2022-09-17T01:46:07.778Z,34.50
2022-09-17T01:48:36.085Z,33.47
2022-09-17T01:51:07.179Z,39.50
2022-09-17T01:53:59.876Z,27.60
2022-09-17T01:56:33.509Z,34.77
2022-09-17T01:59:02.799Z,34.67
2022-09-17T02:01:31.146Z,36.73
2022-09-17T02:04:00.571Z,35.20
2022-09-17T02:06:30.043Z,26.00
2022-09-17T02:09:15.882Z,26.17
2022-09-17T02:11:44.310Z,23.57
2022-09-17T02:14:13.561Z,31.53
2022-09-17T02:16:43.399Z,33.23
2022-09-17T02:19:18.514Z,31.03
2022-09-17T02:22:03.534Z,27.53
2022-09-17T02:24:37.641Z,26.87
2022-09-17T02:27:07.406Z,33.10
2022-09-17T02:29:35.908Z,21.37
2022-09-17T02:32:02.305Z,38.00
2022-09-17T02:34:29.479Z,25.17
2022-09-17T02:36:56.695Z,26.13
2022-09-17T02:39:23.031Z,30.23
2022-09-17T02:41:49.351Z,38.73
2022-09-17T02:44:29.037Z,22.20
2022-09-17T02:47:02.962Z,34.60
2022-09-17T02:49:41.772Z,26.13
2022-09-17T02:52:20.292Z,27.77
2022-09-17T02:54:46.609Z,35.33
2022-09-17T02:57:22.232Z,25.73
2022-09-17T02:59:54.558Z,32.93
2022-09-17T03:02:27.421Z,26.60
2022-09-17T03:04:54.683Z,27.63
2022-09-17T03:07:22.317Z,36.77
2022-09-17T03:09:48.724Z,25.97
2022-09-17T03:12:15.370Z,23.43
2022-09-17T03:14:41.826Z,35.70
2022-09-17T03:17:08.225Z,26.60
2022-09-17T03:19:34.574Z,31.03
2022-09-17T03:22:01.242Z,23.60
2022-09-17T03:24:27.593Z,26.07
2022-09-17T03:26:54.017Z,24.90
2022-09-17T03:29:20.707Z,26.03
2022-09-17T03:31:47.123Z,24.50
2022-09-17T03:34:13.575Z,22.90
2022-09-17T03:36:39.939Z,19.93
2022-09-17T03:39:06.366Z,22.73
2022-09-17T03:41:32.782Z,20.70
2022-09-17T03:43:59.120Z,26.47
2022-09-17T03:46:25.544Z,22.57
2022-09-17T03:48:51.887Z,18.27
2022-09-17T03:51:18.406Z,21.27
2022-09-17T03:53:44.783Z,20.67
2022-09-17T03:56:11.163Z,30.73
2022-09-17T03:58:37.489Z,28.73
2022-09-17T04:01:04.687Z,21.37
2022-09-17T04:03:31.312Z,20.00
2022-09-17T04:05:57.710Z,22.20
2022-09-17T04:08:24.137Z,21.83
2022-09-17T04:10:51.975Z,20.93
2022-09-17T04:13:19.187Z,18.50
2022-09-17T04:15:46.234Z,17.20
2022-09-17T04:18:12.723Z,18.57
2022-09-17T04:20:39.234Z,18.07
2022-09-17T04:23:07.183Z,16.93
2022-09-17T04:25:34.147Z,22.13
2022-09-17T04:28:00.543Z,14.07
2022-09-17T04:30:26.931Z,19.53
2022-09-17T04:32:53.333Z,13.83
2022-09-17T04:35:19.676Z,14.93
2022-09-17T04:37:52.025Z,18.30
2022-09-17T04:40:18.401Z,18.03
2022-09-17T04:42:44.752Z,17.40
2022-09-17T04:45:11.084Z,20.57
2022-09-17T04:47:38.774Z,21.27
2022-09-17T04:50:05.384Z,26.07
2022-09-17T04:52:31.766Z,20.73
2022-09-17T04:54:58.101Z,25.07
2022-09-17T04:57:25.582Z,27.87
2022-09-17T04:59:52.155Z,26.37
2022-09-17T05:02:18.614Z,25.10
2022-09-17T05:04:45.054Z,19.53
2022-09-17T05:07:13.881Z,25.37
2022-09-17T05:09:40.423Z,21.27
2022-09-17T05:12:07.074Z,20.33
2022-09-17T05:14:33.451Z,22.27
2022-09-17T05:16:59.799Z,29.83
2022-09-17T05:19:26.139Z,15.97
2022-09-17T05:21:52.512Z,24.03
2022-09-17T05:24:18.860Z,35.97
2022-09-17T05:26:45.221Z,21.90
2022-09-17T05:29:11.821Z,21.90
2022-09-17T05:31:38.266Z,20.07
2022-09-17T05:34:05.291Z,16.70
2022-09-17T05:36:31.658Z,21.77
2022-09-17T05:38:58.027Z,24.73
2022-09-17T05:41:24.389Z,23.70
2022-09-17T05:43:51.281Z,20.27
2022-09-17T05:46:17.673Z,19.47
2022-09-17T05:48:44.317Z,25.07
2022-09-17T05:51:10.702Z,22.57
2022-09-17T05:53:37.983Z,25.63
2022-09-17T05:56:04.377Z,18.73
2022-09-17T05:58:32.697Z,22.30
2022-09-17T06:01:00.790Z,20.23
2022-09-17T06:03:27.163Z,19.47
2022-09-17T06:05:58.364Z,30.97
2022-09-17T06:08:25.714Z,19.33
2022-09-17T06:10:52.112Z,17.30
2022-09-17T06:13:18.787Z,18.67
2022-09-17T06:15:52.267Z,22.27
2022-09-17T06:18:18.905Z,15.50
2022-09-17T06:20:55.265Z,14.10
2022-09-17T06:23:22.166Z,17.07
2022-09-17T06:25:52.775Z,15.50
2022-09-17T06:28:19.238Z,16.50
2022-09-17T06:30:45.590Z,25.27
2022-09-17T06:33:12.102Z,13.20
2022-09-17T06:35:38.437Z,18.30
2022-09-17T06:38:05.005Z,12.57
2022-09-17T06:40:31.511Z,14.53
2022-09-17T06:42:59.429Z,21.00
2022-09-17T06:45:26.536Z,13.13
2022-09-17T06:47:53.126Z,15.57
2022-09-17T06:50:19.690Z,18.30
2022-09-17T06:52:53.223Z,26.03
2022-09-17T06:55:19.679Z,21.20
2022-09-17T06:57:46.468Z,21.90
2022-09-17T07:00:14.010Z,19.63
2022-09-17T07:02:40.427Z,11.77
2022-09-17T07:05:07.110Z,19.27
2022-09-17T07:07:35.736Z,17.53
2022-09-17T07:10:02.513Z,15.47
2022-09-17T07:12:28.887Z,12.03
2022-09-17T07:14:55.204Z,12.23
2022-09-17T07:17:21.565Z,10.33
2022-09-17T07:19:47.898Z,8.97
2022-09-17T07:22:14.305Z,9.03
2022-09-17T07:24:40.709Z,10.27
2022-09-17T07:27:07.044Z,23.90
2022-09-17T07:29:33.399Z,8.63
2022-09-17T07:31:59.841Z,12.90
2022-09-17T07:34:28.863Z,7.30
2022-09-17T07:36:55.200Z,6.40
2022-09-17T07:39:21.520Z,6.93
2022-09-17T07:41:47.853Z,13.30
2022-09-17T07:44:14.210Z,15.33
2022-09-17T07:46:40.614Z,4.20
2022-09-17T07:49:06.995Z,6.47
2022-09-17T07:51:33.333Z,5.50
2022-09-17T07:53:59.977Z,10.67
2022-09-17T07:56:27.053Z,6.93
2022-09-17T07:58:53.663Z,8.17
2022-09-17T08:01:22.634Z,9.33
2022-09-17T08:03:50.420Z,5.30
2022-09-17T08:06:18.464Z,6.43
2022-09-17T08:08:44.807Z,9.30
2022-09-17T08:11:12.214Z,13.93
2022-09-17T08:13:38.580Z,12.17
2022-09-17T08:16:06.613Z,9.20
2022-09-17T08:18:33.372Z,10.70
2022-09-17T08:21:00.511Z,11.00
2022-09-17T08:23:27.452Z,10.77
2022-09-17T08:25:54.418Z,10.00
2022-09-17T08:28:21.131Z,10.27
2022-09-17T08:30:48.348Z,13.23
2022-09-17T08:33:15.084Z,6.53
2022-09-17T08:35:41.407Z,9.60
2022-09-17T08:38:07.859Z,12.80
2022-09-17T08:40:40.112Z,10.30
2022-09-17T08:43:11.657Z,11.63
2022-09-17T08:45:38.034Z,7.97
2022-09-17T08:48:05.227Z,12.23
2022-09-17T08:50:32.905Z,11.23
2022-09-17T08:52:59.670Z,9.33
2022-09-17T08:55:33.930Z,13.13
2022-09-17T08:58:00.263Z,17.00
2022-09-17T09:00:29.862Z,4.87
2022-09-17T09:03:15.222Z,8.13
2022-09-17T09:05:46.166Z,9.40
2022-09-17T09:08:21.553Z,10.40
2022-09-17T09:10:53.040Z,7.30
2022-09-17T09:13:21.428Z,8.77
2022-09-17T09:15:51.500Z,9.07
2022-09-17T09:18:19.146Z,9.33
2022-09-17T09:20:59.838Z,3.93
2022-09-17T09:23:32.269Z,12.87
2022-09-17T09:26:16.631Z,2.43
2022-09-17T09:28:52.154Z,3.83
2022-09-17T09:31:22.175Z,3.87
2022-09-17T09:33:49.336Z,3.63
2022-09-17T09:36:16.427Z,3.77
2022-09-17T09:38:50.335Z,4.43
2022-09-17T09:41:19.904Z,3.03
2022-09-17T09:44:03.303Z,5.53
2022-09-17T09:46:45.735Z,7.30
2022-09-17T09:49:22.907Z,4.03
2022-09-17T09:51:54.431Z,4.13
2022-09-17T09:54:26.969Z,3.03
2022-09-17T09:56:58.429Z,2.67
2022-09-17T09:59:25.741Z,4.63
2022-09-17T10:01:52.543Z,7.43
2022-09-17T10:04:28.451Z,2.37
2022-09-17T10:06:59.813Z,3.33
2022-09-17T10:09:27.818Z,1.97
2022-09-17T10:12:01.709Z,3.03
2022-09-17T10:14:29.743Z,3.60
2022-09-17T10:17:14.250Z,4.10
2022-09-17T10:19:41.150Z,5.80
2022-09-17T10:22:26.315Z,7.10
2022-09-17T10:24:54.142Z,2.60
2022-09-17T10:27:21.450Z,7.13
2022-09-17T10:29:49.220Z,4.20
2022-09-17T10:32:16.502Z,4.63
2022-09-17T10:34:56.980Z,5.33
2022-09-17T10:37:42.511Z,5.97
2022-09-17T10:40:18.728Z,4.80
2022-09-17T10:43:05.526Z,5.27
2022-09-17T10:45:32.279Z,6.23
2022-09-17T10:47:59.899Z,4.30
2022-09-17T10:50:30.343Z,4.17
2022-09-17T10:52:58.785Z,5.30
2022-09-17T10:55:36.086Z,5.80
2022-09-17T10:58:03.123Z,1.80
2022-09-17T11:00:42.430Z,7.70
2022-09-17T11:03:08.742Z,7.53
2022-09-17T11:05:41.416Z,8.70
2022-09-17T11:08:11.899Z,4.83
2022-09-17T11:10:53.816Z,4.00
2022-09-17T11:13:24.994Z,4.03
2022-09-17T11:16:05.821Z,6.97
2022-09-17T11:18:32.208Z,4.67
2022-09-17T11:21:21.024Z,4.13
2022-09-17T11:23:58.870Z,4.97
2022-09-17T11:26:34.134Z,5.47
2022-09-17T11:29:00.530Z,6.93
2022-09-17T11:31:39.023Z,6.30
2022-09-17T11:34:08.405Z,6.53
2022-09-17T11:36:43.786Z,4.07
2022-09-17T11:39:18.676Z,10.77
2022-09-17T11:41:46.886Z,2.17
2022-09-17T11:44:16.302Z,3.83
2022-09-17T11:46:47.756Z,4.53
2022-09-17T11:49:29.668Z,3.77
2022-09-17T11:52:02.106Z,4.00
2022-09-17T11:54:31.319Z,7.07
2022-09-17T11:57:06.468Z,5.93
2022-09-17T11:59:41.079Z,8.17
2022-09-17T12:02:19.476Z,6.73
2022-09-17T12:05:01.826Z,5.27
2022-09-17T12:07:46.918Z,2.63
2022-09-17T12:10:23.327Z,5.60
2022-09-17T12:12:55.492Z,3.73
2022-09-17T12:15:26.951Z,9.57
2022-09-17T12:18:08.760Z,7.80
2022-09-17T12:20:42.030Z,8.43
2022-09-17T12:23:13.004Z,7.33
2022-09-17T12:25:51.943Z,9.37
2022-09-17T12:28:24.553Z,7.57
2022-09-17T12:30:58.597Z,7.80
2022-09-17T12:33:28.589Z,5.93
2022-09-17T12:36:05.597Z,8.17
2022-09-17T12:38:47.803Z,9.03
2022-09-17T12:41:33.143Z,7.13
2022-09-17T12:44:15.806Z,6.93
2022-09-17T12:47:01.014Z,9.00
2022-09-17T12:49:41.745Z,6.57
2022-09-17T12:52:13.905Z,7.00
2022-09-17T12:54:59.216Z,6.67
2022-09-17T12:57:31.549Z,9.13
2022-09-17T13:00:07.914Z,9.00
2022-09-17T13:02:38.333Z,6.37
2022-09-17T13:05:26.214Z,6.37
2022-09-17T13:07:58.662Z,9.33
2022-09-17T13:10:45.620Z,9.07
2022-09-17T13:13:21.431Z,9.90
2022-09-17T13:15:54.927Z,8.80
2022-09-17T13:18:31.654Z,7.87
2022-09-17T13:21:13.174Z,10.17
2022-09-17T13:23:43.953Z,9.07
2022-09-17T13:26:17.251Z,7.27
2022-09-17T13:28:47.496Z,8.70
2022-09-17T13:31:19.746Z,6.67
2022-09-17T13:33:50.413Z,4.43
2022-09-17T13:36:35.562Z,7.80
2022-09-17T13:39:02.725Z,4.77
2022-09-17T13:41:30.166Z,7.23
2022-09-17T13:43:57.576Z,4.73
2022-09-17T13:46:24.775Z,3.53
2022-09-17T13:48:56.574Z,5.67
2022-09-17T13:51:32.195Z,17.87
2022-09-17T13:54:00.296Z,5.37
2022-09-17T13:56:29.523Z,6.73
2022-09-17T13:59:05.205Z,5.27
2022-09-17T14:01:49.976Z,6.63
2022-09-17T14:04:35.158Z,7.03
2022-09-17T14:07:21.465Z,8.33
2022-09-17T14:09:54.790Z,6.83
2022-09-17T14:12:45.508Z,8.43
2022-09-17T14:15:30.675Z,9.47
2022-09-17T14:17:57.220Z,3.70
2022-09-17T14:20:24.527Z,3.80
2022-09-17T14:23:16.992Z,4.50
2022-09-17T14:25:47.642Z,3.00
2022-09-17T14:28:18.427Z,2.53
2022-09-17T14:30:47.651Z,2.70
2022-09-17T14:33:18.827Z,3.97
2022-09-17T14:35:49.325Z,6.40
2022-09-17T14:38:18.849Z,2.73
2022-09-17T14:40:46.592Z,3.80
2022-09-17T14:43:17.696Z,3.97
2022-09-17T14:45:44.394Z,8.03
2022-09-17T14:48:20.543Z,8.50
2022-09-17T14:50:46.950Z,6.37
2022-09-17T14:53:17.983Z,3.93
2022-09-17T14:55:46.166Z,4.90
2022-09-17T14:58:31.352Z,6.70
2022-09-17T15:00:57.718Z,7.33
2022-09-17T15:03:24.886Z,7.20
2022-09-17T15:05:51.457Z,5.83
2022-09-17T15:08:21.155Z,5.07
2022-09-17T15:10:52.460Z,7.10
2022-09-17T15:13:25.378Z,6.43
2022-09-17T15:15:53.246Z,7.57
2022-09-17T15:18:20.506Z,4.83
2022-09-17T15:20:47.576Z,7.00
2022-09-17T15:23:16.692Z,12.80
2022-09-17T15:25:44.119Z,6.43
2022-09-17T15:28:26.622Z,6.73
2022-09-17T15:30:53.047Z,4.70
2022-09-17T15:33:19.641Z,9.40
2022-09-17T15:35:59.439Z,9.83
2022-09-17T15:38:30.071Z,6.60
2022-09-17T15:41:11.017Z,6.83
2022-09-17T15:43:38.475Z,6.10
2022-09-17T15:46:21.958Z,5.57
2022-09-17T15:48:48.394Z,6.07
2022-09-17T15:51:26.414Z,5.73
2022-09-17T15:53:57.825Z,2.80
2022-09-17T15:56:26.946Z,7.00
2022-09-17T15:58:55.238Z,5.23
2022-09-17T16:01:21.613Z,5.67
2022-09-17T16:04:03.457Z,5.30
2022-09-17T16:06:29.786Z,7.20
2022-09-17T16:08:57.303Z,3.87
2022-09-17T16:11:27.195Z,4.23
2022-09-17T16:13:54.610Z,6.27
2022-09-17T16:16:22.370Z,4.33
2022-09-17T16:18:49.503Z,5.57
2022-09-17T16:21:16.703Z,3.97
2022-09-17T16:23:43.276Z,4.07
2022-09-17T16:26:12.308Z,5.13
2022-09-17T16:28:38.860Z,2.83
2022-09-17T16:31:05.634Z,2.53
2022-09-17T16:33:32.166Z,3.87
2022-09-17T16:35:59.234Z,3.73
2022-09-17T16:38:26.434Z,5.57
2022-09-17T16:40:52.798Z,3.87
2022-09-17T16:43:19.195Z,4.10
2022-09-17T16:45:58.092Z,5.33
2022-09-17T16:48:24.502Z,3.23
2022-09-17T16:50:50.847Z,2.53
2022-09-17T16:53:18.364Z,8.27
2022-09-17T16:55:44.712Z,3.60
2022-09-17T16:58:11.210Z,3.10
2022-09-17T17:00:37.642Z,6.33
2022-09-17T17:03:04.584Z,3.83
2022-09-17T17:05:31.236Z,3.37
2022-09-17T17:07:57.613Z,6.97
2022-09-17T17:10:26.602Z,2.50
2022-09-17T17:12:53.018Z,4.77
2022-09-17T17:15:19.754Z,5.90
2022-09-17T17:17:46.154Z,5.53
2022-09-17T17:20:13.673Z,4.47
2022-09-17T17:22:40.831Z,5.03
2022-09-17T17:25:07.397Z,6.17
2022-09-17T17:27:34.059Z,5.17
2022-09-17T17:30:02.408Z,5.33
2022-09-17T17:32:28.751Z,4.33
2022-09-17T17:34:55.125Z,5.37
2022-09-17T17:37:23.281Z,3.77
2022-09-17T17:39:49.721Z,6.27
2022-09-17T17:42:16.055Z,4.77
2022-09-17T17:44:42.369Z,5.33
2022-09-17T17:47:08.735Z,5.70
2022-09-17T17:49:35.067Z,5.97
2022-09-17T17:52:01.513Z,3.90
2022-09-17T17:54:29.004Z,6.17
2022-09-17T17:56:55.743Z,5.27
2022-09-17T17:59:22.245Z,4.37
2022-09-17T18:01:48.658Z,3.33
2022-09-17T18:04:15.362Z,3.73
2022-09-17T18:06:42.726Z,3.83
2022-09-17T18:09:09.081Z,3.43
2022-09-17T18:11:35.575Z,3.93
2022-09-17T18:14:02.094Z,6.93
2022-09-17T18:16:29.143Z,4.07
2022-09-17T18:18:56.990Z,5.20
2022-09-17T18:21:24.034Z,6.40
2022-09-17T18:23:51.048Z,3.10
2022-09-17T18:26:21.460Z,4.00
2022-09-17T18:28:47.967Z,5.33
2022-09-17T18:31:20.162Z,6.67
2022-09-17T18:33:46.666Z,6.53
2022-09-17T18:36:12.991Z,6.57
2022-09-17T18:38:39.716Z,7.23
2022-09-17T18:41:07.347Z,6.17
2022-09-17T18:43:34.003Z,6.50
2022-09-17T18:46:00.998Z,8.27
2022-09-17T18:48:27.734Z,6.17
2022-09-17T18:51:08.780Z,6.53
2022-09-17T18:53:36.231Z,6.87
2022-09-17T18:56:05.603Z,8.23
2022-09-17T18:58:32.124Z,8.67
2022-09-17T19:00:58.586Z,4.77
2022-09-17T19:03:25.102Z,9.27
2022-09-17T19:05:51.438Z,8.93
2022-09-17T19:08:21.442Z,9.60
2022-09-17T19:10:51.469Z,8.27
2022-09-17T19:13:18.201Z,9.17
2022-09-17T19:15:44.593Z,7.17
2022-09-17T19:18:11.659Z,12.87
2022-09-17T19:20:38.677Z,11.73
2022-09-17T19:23:05.511Z,16.93
2022-09-17T19:25:32.696Z,33.50
2022-09-17T19:27:59.030Z,12.10
2022-09-17T19:30:25.747Z,9.83
2022-09-17T19:32:52.086Z,13.20
2022-09-17T19:35:18.430Z,12.73
2022-09-17T19:37:44.818Z,12.77
2022-09-17T19:40:11.940Z,9.03
2022-09-17T19:42:38.627Z,16.27
2022-09-17T19:45:05.577Z,14.20
2022-09-17T19:47:32.275Z,15.90
2022-09-17T19:49:58.628Z,14.53
2022-09-17T19:52:25.078Z,16.60
2022-09-17T19:54:51.650Z,15.17
2022-09-17T19:57:18.062Z,15.67
2022-09-17T19:59:44.738Z,14.47
2022-09-17T20:02:12.662Z,13.40
2022-09-17T20:04:39.116Z,16.67
2022-09-17T20:07:05.521Z,15.07
2022-09-17T20:09:33.198Z,18.77
2022-09-17T20:12:00.742Z,15.90
2022-09-17T20:14:27.725Z,19.70
2022-09-17T20:16:54.080Z,19.53
2022-09-17T20:19:20.576Z,20.47
2022-09-17T20:21:46.986Z,19.10
2022-09-17T20:24:13.418Z,18.23
2022-09-17T20:26:40.492Z,17.60
2022-09-17T20:29:06.888Z,15.03
2022-09-17T20:31:33.408Z,15.33
2022-09-17T20:34:01.113Z,16.10
2022-09-17T20:36:30.825Z,11.87
2022-09-17T20:39:18.194Z,10.37
2022-09-17T20:41:43.972Z,19.50
2022-09-17T20:44:10.371Z,18.27
2022-09-17T20:46:36.900Z,17.67
2022-09-17T20:49:03.393Z,15.10
2022-09-17T20:51:30.193Z,15.10
2022-09-17T20:54:01.043Z,13.07
2022-09-17T20:56:28.833Z,16.50
2022-09-17T20:59:01.339Z,16.50
2022-09-17T21:01:35.931Z,13.70
2022-09-17T21:04:02.571Z,14.60
2022-09-17T21:06:30.075Z,15.70
2022-09-17T21:08:56.798Z,14.60
2022-09-17T21:11:24.097Z,17.07
2022-09-17T21:13:50.995Z,14.17
2022-09-17T21:16:17.789Z,13.00
2022-09-17T21:18:44.249Z,10.20
2022-09-17T21:21:12.107Z,18.47
2022-09-17T21:23:39.089Z,10.53
2022-09-17T21:26:11.657Z,10.93
2022-09-17T21:28:38.533Z,8.83
2022-09-17T21:31:06.046Z,7.67
2022-09-17T21:33:32.611Z,14.73
2022-09-17T21:36:04.066Z,9.67
2022-09-17T21:38:30.410Z,13.73
2022-09-17T21:40:57.373Z,8.67
2022-09-17T21:43:24.103Z,17.00
2022-09-17T21:46:00.563Z,9.17
2022-09-17T21:48:27.287Z,13.90
2022-09-17T21:50:54.166Z,11.40
2022-09-17T21:53:20.648Z,11.07
2022-09-17T21:55:46.962Z,16.63
2022-09-17T21:58:13.393Z,10.43
2022-09-17T22:00:39.752Z,10.53
2022-09-17T22:03:06.169Z,13.30
2022-09-17T22:05:32.698Z,11.13
2022-09-17T22:07:59.058Z,16.27
2022-09-17T22:10:25.406Z,10.57
2022-09-17T22:12:51.746Z,11.03
2022-09-17T22:15:18.095Z,12.97
2022-09-17T22:17:44.450Z,14.57
2022-09-17T22:20:10.758Z,16.20
2022-09-17T22:22:37.108Z,9.83
2022-09-17T22:25:03.575Z,12.57
2022-09-17T22:27:29.958Z,7.83
2022-09-17T22:29:56.269Z,10.00
2022-09-17T22:32:22.713Z,8.17
2022-09-17T22:34:49.718Z,13.97
2022-09-17T22:37:16.998Z,11.53
2022-09-17T22:39:43.343Z,15.43
2022-09-17T22:42:09.679Z,11.60
2022-09-17T22:44:36.098Z,12.40
2022-09-17T22:47:02.540Z,11.10
2022-09-17T22:49:28.865Z,7.17
2022-09-17T22:51:55.173Z,7.60
2022-09-17T22:54:21.512Z,7.33
2022-09-17T22:56:48.231Z,8.90
2022-09-17T22:59:14.669Z,7.23
2022-09-17T23:01:41.611Z,13.77
2022-09-17T23:04:08.465Z,9.93
2022-09-17T23:06:36.029Z,8.43
2022-09-17T23:09:02.685Z,15.83
2022-09-17T23:11:33.020Z,6.80
2022-09-17T23:14:02.255Z,11.00
2022-09-17T23:16:29.347Z,8.83
2022-09-17T23:18:56.761Z,13.27
2022-09-17T23:21:23.134Z,10.13
2022-09-17T23:23:50.208Z,9.17
2022-09-17T23:26:18.370Z,8.70
2022-09-17T23:28:44.753Z,14.43
2022-09-17T23:31:12.404Z,13.27
2022-09-17T23:33:39.151Z,15.00
2022-09-17T23:36:09.978Z,13.53
2022-09-17T23:38:36.320Z,11.20
2022-09-17T23:41:17.068Z,13.50
2022-09-17T23:43:44.656Z,17.23
2022-09-17T23:46:11.133Z,10.43
2022-09-17T23:48:37.691Z,11.03
2022-09-17T23:51:04.263Z,10.77
2022-09-17T23:53:31.099Z,19.70
2022-09-17T23:55:57.495Z,13.00
2022-09-17T23:58:23.882Z,9.07
